createdAt,value
2019-05-01T00:01:34.002Z,90.49
2019-05-01T00:04:17.244Z,90.62
2019-05-01T00:06:51.160Z,91.02
2019-05-01T00:09:21.106Z,90.78
2019-05-01T00:11:51.111Z,90.74
2019-05-01T00:14:21.084Z,90.79
2019-05-01T00:16:50.909Z,90.79
2019-05-01T00:19:20.632Z,91.55
2019-05-01T00:21:50.313Z,91.48
2019-05-01T00:24:20.100Z,91.36
2019-05-01T00:26:49.879Z,90.95
2019-05-01T00:29:19.656Z,90.92
2019-05-01T00:31:49.352Z,90.97
2019-05-01T00:34:19.023Z,90.59
2019-05-01T00:36:48.716Z,90.72
2019-05-01T00:39:18.784Z,90.79
2019-05-01T00:41:48.541Z,91.08
2019-05-01T00:44:18.239Z,91.42
2019-05-01T00:46:47.936Z,91.79
2019-05-01T00:49:17.629Z,92.10
2019-05-01T00:51:47.320Z,91.97
2019-05-01T00:54:20.118Z,91.37
2019-05-01T00:56:54.435Z,91.28
2019-05-01T00:59:25.779Z,91.57
2019-05-01T01:02:06.118Z,91.77
2019-05-01T01:04:35.797Z,91.78
2019-05-01T01:07:05.481Z,91.52
2019-05-01T01:09:35.169Z,91.76
2019-05-01T01:12:08.162Z,91.67
2019-05-01T01:14:37.837Z,91.26
2019-05-01T01:17:07.607Z,91.41
2019-05-01T01:19:37.283Z,91.28
2019-05-01T01:22:07.129Z,90.86
2019-05-01T01:24:36.875Z,91.13
2019-05-01T01:27:06.638Z,91.45
2019-05-01T01:29:36.308Z,91.56
2019-05-01T01:32:06.094Z,91.66
2019-05-01T01:34:35.830Z,91.87
2019-05-01T01:37:05.584Z,91.65
2019-05-01T01:39:35.330Z,91.43
2019-05-01T01:42:05.318Z,91.81
2019-05-01T01:44:37.349Z,91.69
2019-05-01T01:47:07.279Z,91.20
2019-05-01T01:49:37.093Z,91.43
2019-05-01T01:52:07.126Z,91.27
2019-05-01T01:54:36.910Z,90.99
2019-05-01T01:57:06.746Z,90.80
2019-05-01T01:59:36.654Z,91.11
2019-05-01T02:02:24.549Z,90.50
2019-05-01T02:04:56.000Z,90.49
2019-05-01T02:07:26.128Z,90.63
2019-05-01T02:09:59.398Z,90.73
2019-05-01T02:12:29.504Z,90.99
2019-05-01T02:14:59.326Z,90.78
2019-05-01T02:17:29.326Z,90.82
2019-05-01T02:19:59.555Z,91.11
2019-05-01T02:22:29.394Z,91.04
2019-05-01T02:24:59.141Z,90.86
2019-05-01T02:27:36.733Z,90.55
2019-05-01T02:30:09.381Z,90.89
2019-05-01T02:32:40.045Z,91.02
2019-05-01T02:35:09.950Z,91.55
2019-05-01T02:37:40.069Z,91.46
2019-05-01T02:40:31.115Z,91.93
2019-05-01T02:43:02.374Z,91.32
2019-05-01T02:45:34.414Z,91.43
2019-05-01T02:48:04.846Z,90.93
2019-05-01T02:50:36.672Z,90.94
2019-05-01T02:53:06.716Z,91.44
2019-05-01T02:55:44.261Z,91.39
2019-05-01T02:58:14.594Z,91.13
2019-05-01T03:00:44.885Z,90.46
2019-05-01T03:03:14.791Z,90.25
2019-05-01T03:05:44.615Z,90.36
2019-05-01T03:08:14.624Z,90.64
2019-05-01T03:10:44.452Z,90.94
2019-05-01T03:13:14.294Z,90.59
2019-05-01T03:15:44.246Z,90.33
2019-05-01T03:18:21.627Z,90.06
2019-05-01T03:20:53.695Z,90.33
2019-05-01T03:23:40.719Z,90.56
2019-05-01T03:26:11.029Z,90.40
2019-05-01T03:28:40.804Z,89.82
2019-05-01T03:31:10.888Z,89.72
2019-05-01T03:33:40.886Z,89.40
2019-05-01T03:36:10.802Z,89.21
2019-05-01T03:38:40.824Z,89.22
2019-05-01T03:41:10.633Z,89.09
2019-05-01T03:43:41.275Z,88.76
2019-05-01T03:46:11.487Z,88.89
2019-05-01T03:48:42.730Z,88.91
2019-05-01T03:51:13.058Z,88.97
2019-05-01T03:53:43.390Z,89.10
2019-05-01T03:56:13.985Z,88.31
2019-05-01T03:58:43.869Z,88.16
2019-05-01T04:01:21.275Z,88.46
2019-05-01T04:03:53.094Z,88.48
2019-05-01T04:06:23.251Z,88.66
2019-05-01T04:08:53.472Z,88.30
2019-05-01T04:11:23.824Z,88.08
2019-05-01T04:13:55.231Z,88.11
2019-05-01T04:16:25.224Z,88.99
2019-05-01T04:18:55.784Z,88.94
2019-05-01T04:21:27.567Z,89.40
2019-05-01T04:23:57.376Z,89.79
2019-05-01T04:26:27.988Z,90.19
2019-05-01T04:29:08.819Z,90.41
2019-05-01T04:31:52.408Z,90.48
2019-05-01T04:34:24.116Z,90.40
2019-05-01T04:36:58.013Z,90.00
2019-05-01T04:39:28.503Z,90.32
2019-05-01T04:41:58.644Z,90.55
2019-05-01T04:44:28.587Z,91.02
2019-05-01T04:46:58.767Z,90.94
2019-05-01T04:49:29.301Z,91.21
2019-05-01T04:51:59.158Z,90.84
2019-05-01T04:54:29.146Z,91.20
2019-05-01T04:56:58.987Z,90.90
2019-05-01T04:59:28.727Z,90.93
2019-05-01T05:02:00.230Z,91.35
2019-05-01T05:04:30.611Z,91.12
2019-05-01T05:07:01.534Z,91.29
2019-05-01T05:09:45.508Z,91.43
2019-05-01T05:12:19.469Z,91.20
2019-05-01T05:14:56.826Z,91.52
2019-05-01T05:17:28.793Z,91.66
2019-05-01T05:19:58.751Z,91.44
2019-05-01T05:22:28.815Z,91.53
2019-05-01T05:24:59.116Z,91.61
2019-05-01T05:27:29.666Z,91.50
2019-05-01T05:29:59.765Z,91.33
2019-05-01T05:32:30.182Z,91.85
2019-05-01T05:35:00.433Z,92.01
2019-05-01T05:37:36.497Z,92.16
2019-05-01T05:40:06.882Z,92.14
2019-05-01T05:42:37.536Z,91.89
2019-05-01T05:45:08.424Z,91.39
2019-05-01T05:47:38.303Z,91.20
2019-05-01T05:50:09.599Z,91.44
2019-05-01T05:52:43.987Z,91.32
2019-05-01T05:55:18.414Z,91.78
2019-05-01T05:57:57.581Z,91.96
2019-05-01T06:00:46.882Z,91.51
2019-05-01T06:03:36.667Z,90.94
2019-05-01T06:06:22.046Z,91.19
2019-05-01T06:08:55.140Z,91.44
2019-05-01T06:11:38.699Z,91.89
2019-05-01T06:14:14.433Z,91.61
2019-05-01T06:17:04.286Z,92.08
2019-05-01T06:19:38.836Z,92.25
2019-05-01T06:22:23.369Z,92.79
2019-05-01T06:24:58.653Z,92.69
2019-05-01T06:27:29.671Z,92.45
2019-05-01T06:30:00.266Z,92.38
2019-05-01T06:32:33.597Z,92.50
2019-05-01T06:35:03.172Z,92.13
2019-05-01T06:37:56.043Z,92.21
2019-05-01T06:40:39.140Z,92.25
2019-05-01T06:43:20.118Z,92.37
2019-05-01T06:45:51.640Z,92.72
2019-05-01T06:48:23.167Z,93.44
2019-05-01T06:50:54.858Z,93.68
2019-05-01T06:53:25.063Z,93.75
2019-05-01T06:55:54.948Z,93.92
2019-05-01T06:58:24.874Z,94.08
2019-05-01T07:00:54.700Z,94.70
2019-05-01T07:03:24.526Z,94.79
2019-05-01T07:05:56.245Z,94.61
2019-05-01T07:08:29.597Z,95.08
2019-05-01T07:10:57.382Z,94.69
2019-05-01T07:13:27.144Z,95.02
2019-05-01T07:15:58.744Z,95.28
2019-05-01T07:18:29.144Z,95.21
2019-05-01T07:20:59.253Z,95.38
2019-05-01T07:23:29.081Z,95.40
2019-05-01T07:25:58.829Z,95.09
2019-05-01T07:28:34.378Z,94.97
2019-05-01T07:31:05.002Z,95.21
2019-05-01T07:33:33.660Z,94.95
2019-05-01T07:36:07.057Z,94.36
2019-05-01T07:38:38.367Z,94.37
2019-05-01T07:41:06.828Z,94.07
2019-05-01T07:43:54.831Z,93.90
2019-05-01T07:46:33.645Z,93.66
2019-05-01T07:49:04.144Z,93.64
2019-05-01T07:51:37.770Z,93.57
2019-05-01T07:54:08.855Z,93.82
2019-05-01T07:56:37.485Z,93.67
2019-05-01T07:59:07.335Z,93.59
2019-05-01T08:01:41.676Z,93.21
2019-05-01T08:04:13.813Z,93.74
2019-05-01T08:06:42.880Z,94.12
2019-05-01T08:09:15.160Z,94.06
2019-05-01T08:11:45.478Z,93.62
2019-05-01T08:14:16.524Z,93.70
2019-05-01T08:16:46.786Z,94.06
2019-05-01T08:19:18.344Z,94.10
2019-05-01T08:21:57.011Z,93.84
2019-05-01T08:24:26.914Z,93.36
2019-05-01T08:26:56.737Z,93.28
2019-05-01T08:29:44.677Z,93.70
2019-05-01T08:32:21.732Z,93.67
2019-05-01T08:34:55.774Z,93.50
2019-05-01T08:37:26.915Z,93.31
2019-05-01T08:39:55.718Z,93.24
2019-05-01T08:42:29.809Z,93.19
2019-05-01T08:45:05.111Z,92.85
2019-05-01T08:47:51.858Z,92.76
2019-05-01T08:50:24.800Z,92.27
2019-05-01T08:52:53.809Z,91.78
2019-05-01T08:55:27.157Z,91.46
2019-05-01T08:57:57.002Z,91.30
2019-05-01T09:00:30.970Z,91.02
2019-05-01T09:03:08.102Z,91.07
2019-05-01T09:05:33.949Z,91.91
2019-05-01T09:08:03.578Z,92.20
2019-05-01T09:10:33.317Z,92.68
2019-05-01T09:13:03.134Z,92.97
2019-05-01T09:15:32.982Z,92.26
2019-05-01T09:18:02.714Z,92.49
2019-05-01T09:20:33.707Z,92.16
2019-05-01T09:23:03.480Z,91.70
2019-05-01T09:25:36.811Z,91.72
2019-05-01T09:28:14.255Z,91.57
2019-05-01T09:30:51.843Z,91.72
2019-05-01T09:33:21.732Z,92.41
2019-05-01T09:35:51.627Z,92.33
2019-05-01T09:38:21.517Z,92.65
2019-05-01T09:40:51.406Z,92.15
2019-05-01T09:43:23.161Z,92.00
2019-05-01T09:45:53.063Z,91.97
2019-05-01T09:48:23.078Z,92.12
2019-05-01T09:51:00.841Z,92.19
2019-05-01T09:53:43.439Z,92.35
2019-05-01T09:56:17.912Z,92.36
2019-05-01T09:58:47.740Z,92.30
2019-05-01T10:01:17.786Z,91.66
2019-05-01T10:03:49.417Z,91.24
2019-05-01T10:06:19.281Z,91.37
2019-05-01T10:08:49.166Z,91.52
2019-05-01T10:11:19.078Z,91.71
2019-05-01T10:13:48.818Z,92.17
2019-05-01T10:16:18.640Z,92.33
2019-05-01T10:18:48.572Z,91.80
2019-05-01T10:21:22.361Z,91.55
2019-05-01T10:23:51.732Z,90.98
2019-05-01T10:26:23.962Z,91.07
2019-05-01T10:29:14.123Z,90.61
2019-05-01T10:32:02.096Z,90.94
2019-05-01T10:34:38.620Z,90.85
2019-05-01T10:37:07.700Z,90.84
2019-05-01T10:39:37.496Z,91.22
2019-05-01T10:42:07.190Z,91.71
2019-05-01T10:44:36.993Z,91.86
2019-05-01T10:47:07.036Z,92.28
2019-05-01T10:49:36.842Z,92.26
2019-05-01T10:52:13.934Z,92.57
2019-05-01T10:54:37.994Z,92.99
2019-05-01T10:57:07.683Z,92.77
2019-05-01T10:59:37.381Z,92.35
2019-05-01T11:02:08.802Z,92.08
2019-05-01T11:04:38.477Z,92.07
2019-05-01T11:07:08.184Z,92.81
2019-05-01T11:09:37.953Z,93.05
2019-05-01T11:12:07.739Z,92.53
2019-05-01T11:14:37.512Z,92.20
2019-05-01T11:17:07.225Z,92.49
2019-05-01T11:19:36.917Z,92.23
2019-05-01T11:22:06.699Z,92.53
2019-05-01T11:24:36.522Z,92.80
2019-05-01T11:27:06.223Z,93.26
2019-05-01T11:29:35.913Z,93.17
2019-05-01T11:32:07.275Z,93.40
2019-05-01T11:34:44.505Z,93.06
2019-05-01T11:37:18.595Z,92.71
2019-05-01T11:39:52.932Z,92.02
2019-05-01T11:42:22.713Z,91.90
2019-05-01T11:44:52.559Z,91.19
2019-05-01T11:47:22.542Z,90.81
2019-05-01T11:49:52.235Z,91.22
2019-05-01T11:52:22.028Z,91.03
2019-05-01T11:54:52.736Z,90.49
2019-05-01T11:57:22.454Z,90.36
2019-05-01T11:59:52.205Z,90.27
2019-05-01T12:02:22.203Z,90.19
2019-05-01T12:04:51.903Z,89.86
2019-05-01T12:07:21.677Z,90.20
2019-05-01T12:09:51.455Z,90.17
2019-05-01T12:12:22.811Z,88.95
2019-05-01T12:14:52.564Z,88.72
2019-05-01T12:17:26.765Z,88.95
2019-05-01T12:19:56.468Z,88.81
2019-05-01T12:22:26.145Z,89.38
2019-05-01T12:24:55.841Z,89.56
2019-05-01T12:27:25.627Z,89.73
2019-05-01T12:29:55.378Z,89.40
2019-05-01T12:32:25.158Z,88.84
2019-05-01T12:34:54.858Z,88.73
2019-05-01T12:37:32.511Z,88.73
2019-05-01T12:40:02.334Z,88.66
2019-05-01T12:42:33.789Z,88.57
2019-05-01T12:45:04.111Z,88.86
2019-05-01T12:47:38.297Z,89.30
2019-05-01T12:50:11.261Z,90.04
2019-05-01T12:52:48.719Z,90.45
2019-05-01T12:55:20.058Z,90.74
2019-05-01T12:57:49.850Z,91.15
2019-05-01T13:00:21.357Z,91.87
2019-05-01T13:02:52.245Z,91.99
2019-05-01T13:05:22.039Z,91.74
2019-05-01T13:07:52.516Z,91.73
2019-05-01T13:10:22.471Z,90.70
2019-05-01T13:12:52.181Z,89.95
2019-05-01T13:15:21.940Z,89.54
2019-05-01T13:17:51.644Z,89.26
2019-05-01T13:20:21.410Z,89.03
2019-05-01T13:22:51.098Z,89.09
2019-05-01T13:25:20.901Z,89.09
2019-05-01T13:27:58.370Z,88.91
2019-05-01T13:30:44.887Z,89.09
2019-05-01T13:33:14.547Z,88.85
2019-05-01T13:35:44.318Z,88.94
2019-05-01T13:38:14.084Z,88.94
2019-05-01T13:40:43.774Z,88.70
2019-05-01T13:43:13.459Z,88.69
2019-05-01T13:45:43.225Z,88.73
2019-05-01T13:48:12.952Z,88.53
2019-05-01T13:50:42.609Z,88.78
2019-05-01T13:53:12.288Z,88.79
2019-05-01T13:55:41.991Z,88.40
2019-05-01T13:58:11.689Z,88.22
2019-05-01T14:00:41.624Z,88.16
2019-05-01T14:03:11.376Z,87.81
2019-05-01T14:05:41.167Z,88.14
2019-05-01T14:08:10.854Z,87.70
2019-05-01T14:10:40.555Z,87.58
2019-05-01T14:13:10.243Z,87.10
2019-05-01T14:15:40.118Z,86.74
2019-05-01T14:18:09.881Z,86.85
2019-05-01T14:20:47.167Z,86.87
2019-05-01T14:23:27.271Z,86.45
2019-05-01T14:26:03.244Z,85.86
2019-05-01T14:28:35.974Z,85.55
2019-05-01T14:31:06.517Z,85.52
2019-05-01T14:33:36.287Z,85.47
2019-05-01T14:36:06.052Z,85.81
2019-05-01T14:38:36.216Z,85.99
2019-05-01T14:41:05.909Z,86.37
2019-05-01T14:43:35.586Z,86.17
2019-05-01T14:46:05.392Z,85.61
2019-05-01T14:48:35.066Z,85.20
2019-05-01T14:51:04.903Z,84.77
2019-05-01T14:53:34.594Z,84.96
2019-05-01T14:56:04.936Z,84.65
2019-05-01T14:58:34.622Z,84.04
2019-05-01T15:01:04.470Z,83.24
2019-05-01T15:03:34.143Z,82.72
2019-05-01T15:06:04.218Z,82.35
2019-05-01T15:08:33.908Z,81.39
2019-05-01T15:11:03.664Z,80.96
2019-05-01T15:13:35.071Z,81.26
2019-05-01T15:16:12.714Z,80.23
2019-05-01T15:18:46.848Z,78.75
2019-05-01T15:21:16.541Z,77.60
2019-05-01T15:23:53.365Z,77.76
2019-05-01T15:26:17.599Z,78.26
2019-05-01T15:28:47.271Z,78.69
2019-05-01T15:31:17.196Z,78.63
2019-05-01T15:33:46.876Z,78.92
2019-05-01T15:36:16.552Z,78.76
2019-05-01T15:38:46.311Z,79.01
2019-05-01T15:41:20.636Z,78.96
2019-05-01T15:44:03.997Z,78.97
2019-05-01T15:46:35.358Z,79.02
2019-05-01T15:49:05.156Z,78.85
2019-05-01T15:51:35.030Z,79.65
2019-05-01T15:54:05.869Z,79.61
2019-05-01T15:56:35.656Z,80.46
2019-05-01T15:59:05.562Z,80.52
2019-05-01T16:01:35.325Z,80.76
2019-05-01T16:04:05.313Z,80.94
2019-05-01T16:06:35.181Z,80.76
2019-05-01T16:09:06.579Z,79.88
2019-05-01T16:11:54.573Z,79.86
2019-05-01T16:14:24.385Z,80.21
2019-05-01T16:16:54.227Z,79.96
2019-05-01T16:19:23.947Z,80.26
2019-05-01T16:21:53.835Z,80.58
2019-05-01T16:24:23.794Z,80.81
2019-05-01T16:26:53.624Z,81.27
2019-05-01T16:29:23.403Z,81.78
2019-05-01T16:31:53.154Z,81.98
2019-05-01T16:34:23.023Z,82.16
2019-05-01T16:36:52.928Z,81.91
2019-05-01T16:39:40.549Z,81.66
2019-05-01T16:42:10.334Z,81.78
2019-05-01T16:44:40.168Z,82.46
2019-05-01T16:47:10.031Z,82.24
2019-05-01T16:49:39.853Z,82.09
2019-05-01T16:52:09.739Z,81.98
2019-05-01T16:54:41.522Z,81.60
2019-05-01T16:57:13.087Z,81.39
2019-05-01T16:59:43.426Z,81.15
2019-05-01T17:02:27.036Z,80.66
2019-05-01T17:05:01.385Z,80.61
2019-05-01T17:07:42.623Z,80.85
2019-05-01T17:10:20.140Z,80.77
2019-05-01T17:12:51.682Z,81.17
2019-05-01T17:15:26.440Z,81.93
2019-05-01T17:17:56.314Z,81.50
2019-05-01T17:20:27.176Z,82.09
2019-05-01T17:22:56.881Z,81.57
2019-05-01T17:25:29.439Z,80.98
2019-05-01T17:27:58.355Z,81.19
2019-05-01T17:30:46.976Z,81.46
2019-05-01T17:33:20.982Z,82.51
2019-05-01T17:35:48.510Z,82.61
2019-05-01T17:38:18.256Z,83.38
2019-05-01T17:40:51.980Z,83.37
2019-05-01T17:43:19.634Z,83.15
2019-05-01T17:45:49.588Z,82.88
2019-05-01T17:48:19.394Z,82.43
2019-05-01T17:50:49.295Z,82.85
2019-05-01T17:53:19.178Z,82.04
2019-05-01T17:55:49.110Z,81.84
2019-05-01T17:58:18.985Z,81.50
2019-05-01T18:00:50.363Z,81.03
2019-05-01T18:03:27.958Z,81.12
2019-05-01T18:06:08.029Z,81.59
2019-05-01T18:08:37.898Z,81.70
2019-05-01T18:11:09.290Z,82.22
2019-05-01T18:13:39.683Z,81.98
2019-05-01T18:16:09.558Z,82.23
2019-05-01T18:18:39.449Z,82.49
2019-05-01T18:21:10.982Z,82.17
2019-05-01T18:23:58.375Z,81.36
2019-05-01T18:26:43.191Z,81.57
2019-05-01T18:29:11.863Z,82.19
2019-05-01T18:31:41.826Z,82.73
2019-05-01T18:34:11.680Z,83.01
2019-05-01T18:36:45.963Z,83.39
2019-05-01T18:39:25.799Z,82.81
2019-05-01T18:42:02.755Z,82.67
2019-05-01T18:44:32.721Z,82.78
2019-05-01T18:47:02.619Z,83.05
2019-05-01T18:49:32.475Z,83.18
2019-05-01T18:52:02.402Z,83.30
2019-05-01T18:54:35.037Z,83.79
2019-05-01T18:57:05.505Z,83.57
2019-05-01T18:59:35.296Z,83.36
2019-05-01T19:02:05.142Z,83.38
2019-05-01T19:04:35.092Z,83.47
2019-05-01T19:07:05.569Z,83.35
2019-05-01T19:09:37.091Z,83.37
2019-05-01T19:12:08.928Z,83.74
2019-05-01T19:14:38.926Z,84.05
2019-05-01T19:17:08.759Z,83.67
2019-05-01T19:19:38.687Z,83.67
2019-05-01T19:22:08.390Z,83.57
2019-05-01T19:24:40.090Z,83.96
2019-05-01T19:27:14.239Z,84.17
2019-05-01T19:29:42.894Z,83.99
2019-05-01T19:32:13.420Z,84.06
2019-05-01T19:34:43.345Z,83.82
2019-05-01T19:37:16.630Z,83.30
2019-05-01T19:39:48.989Z,83.36
2019-05-01T19:42:21.522Z,83.40
2019-05-01T19:44:51.053Z,83.47
2019-05-01T19:47:19.647Z,83.69
2019-05-01T19:49:49.442Z,83.97
2019-05-01T19:52:19.378Z,83.85
2019-05-01T19:54:50.686Z,84.01
2019-05-01T19:57:20.504Z,84.13
2019-05-01T19:59:50.219Z,84.10
2019-05-01T20:02:22.018Z,84.17
2019-05-01T20:04:52.410Z,84.40
2019-05-01T20:07:22.386Z,84.31
2019-05-01T20:09:57.154Z,84.50
2019-05-01T20:12:23.807Z,84.46
2019-05-01T20:14:55.241Z,84.32
2019-05-01T20:17:25.134Z,84.17
2019-05-01T20:19:54.935Z,84.07
2019-05-01T20:22:24.850Z,84.21
2019-05-01T20:24:55.070Z,84.08
2019-05-01T20:27:27.542Z,84.23
2019-05-01T20:29:56.406Z,84.15
2019-05-01T20:32:27.947Z,84.08
2019-05-01T20:34:59.418Z,84.42
2019-05-01T20:37:29.502Z,84.31
2019-05-01T20:40:10.380Z,83.71
2019-05-01T20:42:30.817Z,83.77
2019-05-01T20:45:05.408Z,84.09
2019-05-01T20:47:35.400Z,84.44
2019-05-01T20:50:05.166Z,84.29
2019-05-01T20:52:35.007Z,84.21
2019-05-01T20:55:06.434Z,83.29
2019-05-01T20:57:47.067Z,83.22
2019-05-01T21:00:18.914Z,83.27
2019-05-01T21:02:49.002Z,83.28
2019-05-01T21:05:36.445Z,83.22
2019-05-01T21:08:07.889Z,83.38
2019-05-01T21:10:50.277Z,83.23
2019-05-01T21:13:17.599Z,83.45
2019-05-01T21:15:47.353Z,83.35
2019-05-01T21:18:16.317Z,83.57
2019-05-01T21:20:46.145Z,83.74
2019-05-01T21:23:16.505Z,83.78
2019-05-01T21:25:46.465Z,83.91
2019-05-01T21:28:16.169Z,83.70
2019-05-01T21:30:47.536Z,83.90
2019-05-01T21:33:17.530Z,83.89
2019-05-01T21:35:47.388Z,84.01
2019-05-01T21:38:17.243Z,84.07
2019-05-01T21:40:47.034Z,84.37
2019-05-01T21:43:16.796Z,83.85
2019-05-01T21:45:47.505Z,84.16
2019-05-01T21:48:17.310Z,83.96
2019-05-01T21:50:47.043Z,84.00
2019-05-01T21:53:16.798Z,83.88
2019-05-01T21:55:46.552Z,84.37
2019-05-01T21:58:21.105Z,83.94
2019-05-01T22:00:48.821Z,84.06
2019-05-01T22:03:21.469Z,84.16
2019-05-01T22:05:50.243Z,83.51
2019-05-01T22:08:20.040Z,83.44
2019-05-01T22:10:52.138Z,83.53
2019-05-01T22:13:24.373Z,83.37
2019-05-01T22:16:03.846Z,83.36
2019-05-01T22:18:41.280Z,83.28
2019-05-01T22:21:12.685Z,83.75
2019-05-01T22:23:58.990Z,83.55
2019-05-01T22:26:40.073Z,82.86
2019-05-01T22:29:11.393Z,83.12
2019-05-01T22:31:52.862Z,83.28
2019-05-01T22:34:22.325Z,83.46
2019-05-01T22:36:52.174Z,83.68
2019-05-01T22:39:23.487Z,83.79
2019-05-01T22:41:53.255Z,83.77
2019-05-01T22:44:23.507Z,83.82
2019-05-01T22:46:53.393Z,83.75
2019-05-01T22:49:23.136Z,83.89
2019-05-01T22:51:52.837Z,83.88
2019-05-01T22:54:22.550Z,83.74
2019-05-01T22:56:52.219Z,83.80
2019-05-01T22:59:21.943Z,83.80
2019-05-01T23:01:54.261Z,83.99
2019-05-01T23:04:24.341Z,84.08
2019-05-01T23:06:54.277Z,84.02
2019-05-01T23:09:28.491Z,84.10
2019-05-01T23:11:56.533Z,84.47
2019-05-01T23:14:27.129Z,84.85
2019-05-01T23:17:14.238Z,85.10
2019-05-01T23:19:43.913Z,85.33
2019-05-01T23:22:13.680Z,85.51
2019-05-01T23:24:43.340Z,85.79
2019-05-01T23:27:13.174Z,85.98
2019-05-01T23:29:42.839Z,85.85
2019-05-01T23:32:12.593Z,86.55
2019-05-01T23:34:42.337Z,86.92
2019-05-01T23:37:12.096Z,87.17
2019-05-01T23:39:42.201Z,87.23
2019-05-01T23:42:11.952Z,87.21
2019-05-01T23:44:43.034Z,86.72
2019-05-01T23:47:13.546Z,86.60
2019-05-01T23:52:53.712Z,86.43
2019-05-01T23:55:28.845Z,86.54
2019-05-01T23:57:58.612Z,86.77
